Time;durP1;ratioP1;P1;durP2;ratioP2;P2;SDS_P1;SDS_P2;PMS_P1;PMS_P2;Temp;Humidity;BMP_temperature;BMP_pressure;BME280_temperature;BME280_humidity;BME280_pressure;Samples;Min_cycle;Max_cycle;Signal;HPM_P1;HPM_P2
2022/10/20 00:01:33;;;;;;;11.93;5.63;;;8.60;99.90;;;;;;5033350;28;95628;-77
2022/10/20 00:04:00;;;;;;;12.45;6.65;;;8.50;99.90;;;;;;5033901;28;95805;-77
2022/10/20 00:06:30;;;;;;;9.82;6.22;;;8.50;99.90;;;;;;5017327;28;92503;-77
2022/10/20 00:08:58;;;;;;;8.70;5.82;;;8.50;99.90;;;;;;5034307;28;91699;-77
2022/10/20 00:11:27;;;;;;;9.90;6.28;;;8.50;99.90;;;;;;5016930;28;95918;-77
2022/10/20 00:13:55;;;;;;;9.50;5.82;;;8.50;99.90;;;;;;5033476;28;95476;-77
2022/10/20 00:16:24;;;;;;;8.30;5.93;;;8.50;99.90;;;;;;5033980;28;95484;-77
2022/10/20 00:18:51;;;;;;;10.20;5.93;;;8.50;99.90;;;;;;5033845;28;92543;-77
2022/10/20 00:21:22;;;;;;;8.30;6.78;;;8.50;99.90;;;;;;5033822;28;93140;-77
2022/10/20 00:23:49;;;;;;;10.48;6.20;;;8.50;99.90;;;;;;5033573;28;95670;-77
2022/10/20 00:26:18;;;;;;;8.77;6.03;;;8.40;99.90;;;;;;5033657;28;94417;-77
2022/10/20 00:28:46;;;;;;;11.63;6.28;;;8.40;99.90;;;;;;5034758;27;92434;-77
2022/10/20 00:31:14;;;;;;;10.30;5.97;;;8.40;99.90;;;;;;5034773;27;93292;-77
2022/10/20 00:33:41;;;;;;;7.70;5.97;;;8.40;99.90;;;;;;5035278;28;93098;-77
2022/10/20 00:36:12;;;;;;;9.77;6.38;;;8.40;99.90;;;;;;5035187;27;92929;-77
2022/10/20 00:38:39;;;;;;;8.77;5.53;;;8.40;99.90;;;;;;5033519;28;92924;-77
2022/10/20 00:41:07;;;;;;;9.48;6.07;;;8.40;99.90;;;;;;5032256;28;95808;-77
2022/10/20 00:43:52;;;;;;;9.80;5.88;;;8.30;99.90;;;;;;5050284;27;95468;-77
2022/10/20 00:46:22;;;;;;;8.18;6.07;;;8.30;99.90;;;;;;5034665;28;92468;-77
2022/10/20 00:48:55;;;;;;;11.35;6.70;;;8.30;99.90;;;;;;5034881;28;92559;-77
2022/10/20 00:51:26;;;;;;;10.50;5.70;;;8.30;99.90;;;;;;5033806;28;93402;-77
2022/10/20 00:54:02;;;;;;;10.93;5.85;;;8.20;99.90;;;;;;5034792;27;93829;-77
2022/10/20 00:56:29;;;;;;;9.25;5.78;;;8.20;99.90;;;;;;5037611;27;92466;-77
2022/10/20 00:58:56;;;;;;;9.32;5.53;;;8.20;99.90;;;;;;5020237;28;95123;-77
2022/10/20 01:01:23;;;;;;;9.05;6.68;;;8.20;99.90;;;;;;5037127;28;93485;-77
2022/10/20 01:03:51;;;;;;;10.13;5.68;;;8.10;99.90;;;;;;5037797;28;96084;-77
2022/10/20 01:06:21;;;;;;;7.45;5.82;;;8.20;99.90;;;;;;5036557;28;95345;-77
2022/10/20 01:08:50;;;;;;;9.20;6.03;;;8.10;99.90;;;;;;5037960;28;92427;-77
2022/10/20 01:11:36;;;;;;;9.93;5.70;;;8.10;99.90;;;;;;5037487;27;93155;-77
2022/10/20 01:14:21;;;;;;;7.97;5.63;;;8.10;99.90;;;;;;5036542;28;92781;-77
2022/10/20 01:16:51;;;;;;;9.27;5.68;;;8.10;99.90;;;;;;5019979;28;92534;-77
2022/10/20 01:19:40;;;;;;;10.35;6.05;;;8.10;99.90;;;;;;5035784;28;92533;-77
2022/10/20 01:22:18;;;;;;;11.75;6.35;;;8.10;99.90;;;;;;5037578;27;93143;-77
2022/10/20 01:25:01;;;;;;;10.20;6.00;;;8.10;99.90;;;;;;5019747;28;96028;-77
2022/10/20 01:27:54;;;;;;;8.80;6.15;;;8.00;99.90;;;;;;5037941;27;92347;-77
2022/10/20 01:30:22;;;;;;;8.15;5.53;;;8.10;99.90;;;;;;5037913;28;93113;-77
2022/10/20 01:33:06;;;;;;;10.95;6.28;;;8.00;99.90;;;;;;5018146;28;98532;-77
2022/10/20 01:35:50;;;;;;;9.48;6.40;;;8.00;99.90;;;;;;5036431;28;95488;-76
2022/10/20 01:38:31;;;;;;;10.18;5.75;;;8.00;99.90;;;;;;5036100;28;92667;-77
2022/10/20 01:41:23;;;;;;;9.88;6.20;;;8.00;99.90;;;;;;5037737;27;92651;-77
2022/10/20 01:43:51;;;;;;;9.60;6.03;;;8.00;99.90;;;;;;5037502;27;92998;-77
2022/10/20 01:46:23;;;;;;;10.65;7.20;;;8.00;99.90;;;;;;5035558;28;92946;-77
2022/10/20 01:48:50;;;;;;;11.25;5.72;;;8.00;99.90;;;;;;5037623;28;92412;-77
2022/10/20 01:51:17;;;;;;;8.73;6.43;;;8.00;99.90;;;;;;5036261;28;91765;-77
2022/10/20 01:53:44;;;;;;;7.78;5.80;;;8.00;99.90;;;;;;5037121;28;93280;-77
2022/10/20 01:56:19;;;;;;;10.77;6.07;;;7.90;99.90;;;;;;5035824;28;93074;-77
2022/10/20 01:58:48;;;;;;;8.30;5.65;;;8.00;99.90;;;;;;5034552;28;94996;-77
2022/10/20 02:01:41;;;;;;;8.18;5.93;;;7.90;99.90;;;;;;5035798;28;92458;-77
2022/10/20 02:04:09;;;;;;;7.07;5.53;;;8.00;99.90;;;;;;5037048;27;93357;-77
2022/10/20 02:06:53;;;;;;;7.57;5.93;;;7.90;99.90;;;;;;5036615;28;92976;-77
2022/10/20 02:09:54;;;;;;;7.93;5.53;;;8.00;99.90;;;;;;5037149;27;92445;-77
2022/10/20 02:12:30;;;;;;;7.85;5.72;;;7.90;99.90;;;;;;5034861;28;92596;-77
2022/10/20 02:14:58;;;;;;;9.18;6.28;;;7.90;99.90;;;;;;5018798;28;95743;-77
2022/10/20 02:17:27;;;;;;;9.82;5.88;;;7.90;99.90;;;;;;5035514;28;93111;-77
2022/10/20 02:19:55;;;;;;;15.05;7.47;;;7.90;99.90;;;;;;5035113;28;92516;-77
2022/10/20 02:22:23;;;;;;;10.20;6.10;;;7.90;99.90;;;;;;5035595;27;92923;-77
2022/10/20 02:24:50;;;;;;;14.98;5.95;;;7.90;99.90;;;;;;5033790;28;98423;-77
2022/10/20 02:27:21;;;;;;;8.88;6.63;;;7.90;99.90;;;;;;5035364;28;95470;-77
2022/10/20 02:29:57;;;;;;;11.73;6.63;;;7.90;99.90;;;;;;5036825;27;92339;-77
2022/10/20 02:32:26;;;;;;;7.43;6.43;;;7.90;99.90;;;;;;5037013;28;92594;-77
2022/10/20 02:34:52;;;;;;;9.80;6.97;;;7.80;99.90;;;;;;5034873;28;106208;-77
2022/10/20 02:37:20;;;;;;;9.23;6.95;;;7.80;99.90;;;;;;5036537;28;93255;-77
2022/10/20 02:39:46;;;;;;;9.23;7.65;;;7.80;99.90;;;;;;5035668;28;92519;-77
2022/10/20 02:42:16;;;;;;;12.40;7.85;;;7.80;99.90;;;;;;5018599;28;91743;-77
2022/10/20 02:44:43;;;;;;;11.43;6.90;;;7.90;99.90;;;;;;5035071;28;95687;-77
2022/10/20 02:47:10;;;;;;;9.25;7.95;;;7.90;99.90;;;;;;5036144;27;92907;-77
2022/10/20 02:49:36;;;;;;;10.73;7.03;;;7.80;99.90;;;;;;5035504;27;94775;-77
2022/10/20 02:52:03;;;;;;;9.50;7.45;;;7.80;99.90;;;;;;5018337;28;92568;-77
2022/10/20 02:54:30;;;;;;;9.02;7.43;;;7.80;99.90;;;;;;5036189;27;93084;-77
2022/10/20 02:56:57;;;;;;;9.27;7.53;;;7.80;99.90;;;;;;5036234;27;92928;-77
2022/10/20 02:59:24;;;;;;;10.55;8.05;;;7.80;99.90;;;;;;5034207;28;106555;-77
2022/10/20 03:01:51;;;;;;;13.25;8.52;;;7.80;99.90;;;;;;5034555;28;92549;-77
2022/10/20 03:04:18;;;;;;;11.65;7.22;;;7.80;99.90;;;;;;5034503;28;95712;-77
2022/10/20 03:06:45;;;;;;;12.90;8.45;;;7.80;99.90;;;;;;5034968;28;94675;-77
2022/10/20 03:09:12;;;;;;;10.05;7.95;;;7.80;99.90;;;;;;5034805;28;92517;-76
2022/10/20 03:11:39;;;;;;;10.15;7.68;;;7.80;99.90;;;;;;5034764;28;92476;-77
2022/10/20 03:14:06;;;;;;;11.68;8.13;;;7.80;99.90;;;;;;5033458;28;95428;-77
2022/10/20 03:16:33;;;;;;;10.80;8.82;;;7.80;99.90;;;;;;5017633;28;98092;-77
2022/10/20 03:19:00;;;;;;;14.75;8.65;;;7.80;99.90;;;;;;5033463;28;105753;-77
2022/10/20 03:21:29;;;;;;;10.50;8.55;;;7.80;99.90;;;;;;5035748;28;93013;-76
2022/10/20 03:23:55;;;;;;;13.30;8.90;;;7.80;99.90;;;;;;5051394;27;93292;-77
2022/10/20 03:26:22;;;;;;;10.73;8.65;;;7.80;99.90;;;;;;5035802;27;92695;-77
2022/10/20 03:28:49;;;;;;;9.68;8.60;;;7.80;99.90;;;;;;5035994;27;92988;-77
2022/10/20 03:31:16;;;;;;;11.80;9.45;;;7.80;99.90;;;;;;5034881;28;92279;-76
2022/10/20 03:33:43;;;;;;;11.95;9.65;;;7.70;99.90;;;;;;5035635;28;93240;-77
2022/10/20 03:36:10;;;;;;;12.93;9.30;;;7.70;99.90;;;;;;5050968;27;92985;-76
2022/10/20 03:38:41;;;;;;;14.43;9.88;;;7.70;99.90;;;;;;5034265;28;94760;-77
2022/10/20 03:41:09;;;;;;;13.63;10.25;;;7.80;99.90;;;;;;5036155;27;92467;-76
2022/10/20 03:43:37;;;;;;;13.52;9.85;;;7.70;99.90;;;;;;5033402;28;96032;-77
2022/10/20 03:46:06;;;;;;;13.48;10.00;;;7.80;99.90;;;;;;5033717;28;108602;-77
2022/10/20 03:48:34;;;;;;;12.75;10.43;;;7.70;99.90;;;;;;5033824;28;92441;-77
2022/10/20 03:51:03;;;;;;;14.45;10.05;;;7.70;99.90;;;;;;5034892;28;92554;-77
2022/10/20 03:53:30;;;;;;;14.48;10.27;;;7.70;99.90;;;;;;5033420;28;93213;-77
2022/10/20 03:55:57;;;;;;;12.57;10.10;;;7.70;99.90;;;;;;5035184;27;93164;-76
2022/10/20 03:58:24;;;;;;;14.57;10.45;;;7.70;99.90;;;;;;5034581;27;92441;-76
2022/10/20 04:00:52;;;;;;;15.38;10.43;;;7.70;99.90;;;;;;5033800;28;92585;-77
2022/10/20 04:03:19;;;;;;;13.68;10.43;;;7.70;99.90;;;;;;5032330;28;95723;-76
2022/10/20 04:05:46;;;;;;;15.23;11.15;;;7.70;99.90;;;;;;5032907;28;98190;-76
2022/10/20 04:08:12;;;;;;;13.98;10.45;;;7.70;99.90;;;;;;5034983;27;92431;-76
2022/10/20 04:10:40;;;;;;;16.42;10.93;;;7.70;99.90;;;;;;5033167;28;92488;-76
2022/10/20 04:13:07;;;;;;;14.27;10.13;;;7.70;99.90;;;;;;5034609;28;93211;-77
2022/10/20 04:15:35;;;;;;;16.13;10.60;;;7.60;99.90;;;;;;5034504;27;92983;-77
2022/10/20 04:18:02;;;;;;;15.50;10.95;;;7.60;99.90;;;;;;5033321;28;92933;-77
2022/10/20 04:20:28;;;;;;;14.95;11.90;;;7.60;99.90;;;;;;5034536;27;91679;-76
2022/10/20 04:22:55;;;;;;;14.27;10.13;;;7.60;99.90;;;;;;5034476;28;95305;-77
2022/10/20 04:25:22;;;;;;;14.73;11.05;;;7.60;99.90;;;;;;5016345;28;95772;-77
2022/10/20 04:27:49;;;;;;;15.38;12.77;;;7.60;99.90;;;;;;5033652;27;95290;-77
2022/10/20 04:30:16;;;;;;;19.38;12.30;;;7.60;99.90;;;;;;5035873;27;92487;-76
2022/10/20 04:32:43;;;;;;;13.98;11.30;;;7.60;99.90;;;;;;5035971;28;95811;-76
2022/10/20 04:35:10;;;;;;;14.85;12.95;;;7.60;99.90;;;;;;5037953;27;93302;-76
2022/10/20 04:37:37;;;;;;;14.80;11.38;;;7.60;99.90;;;;;;5037941;27;92924;-77
2022/10/20 04:40:05;;;;;;;15.93;14.13;;;7.60;99.90;;;;;;5036608;28;92449;-77
2022/10/20 04:42:32;;;;;;;16.13;11.35;;;7.60;99.90;;;;;;5037122;28;104894;-77
2022/10/20 04:44:59;;;;;;;17.33;13.10;;;7.60;99.90;;;;;;5038133;27;93111;-77
2022/10/20 04:47:30;;;;;;;17.70;12.38;;;7.60;99.90;;;;;;5037691;27;92304;-76
2022/10/20 04:49:57;;;;;;;14.65;11.98;;;7.70;99.90;;;;;;5037926;27;92407;-76
2022/10/20 04:52:24;;;;;;;18.83;14.00;;;7.60;99.90;;;;;;5035258;28;95745;-77
2022/10/20 04:54:51;;;;;;;16.73;13.88;;;7.60;99.90;;;;;;5037513;27;95225;-77
2022/10/20 04:57:18;;;;;;;16.65;10.82;;;7.60;99.90;;;;;;5036667;28;92357;-77
2022/10/20 04:59:45;;;;;;;17.95;12.73;;;7.60;99.90;;;;;;5036195;28;92564;-76
2022/10/20 05:02:12;;;;;;;18.10;13.05;;;7.60;99.90;;;;;;5035762;28;95767;-76
2022/10/20 05:04:39;;;;;;;16.95;12.23;;;7.60;99.90;;;;;;5035752;28;99017;-76
2022/10/20 05:07:06;;;;;;;18.77;14.57;;;7.60;99.90;;;;;;5037610;27;92540;-76
2022/10/20 05:09:33;;;;;;;17.33;13.43;;;7.60;99.90;;;;;;5019401;28;99581;-76
2022/10/20 05:12:00;;;;;;;18.13;13.07;;;7.60;99.90;;;;;;5036277;28;93288;-77
2022/10/20 05:14:26;;;;;;;17.27;13.27;;;7.60;99.90;;;;;;5035919;28;95582;-77
2022/10/20 05:16:54;;;;;;;15.40;12.18;;;7.60;99.90;;;;;;5035695;28;94806;-76
2022/10/20 05:19:21;;;;;;;15.65;12.20;;;7.60;99.90;;;;;;5035664;28;92553;-76
2022/10/20 05:21:48;;;;;;;14.88;12.85;;;7.60;99.90;;;;;;5018559;28;95545;-76
2022/10/20 05:24:16;;;;;;;14.63;12.75;;;7.60;99.90;;;;;;5037282;28;93209;-76
2022/10/20 05:26:45;;;;;;;16.88;12.98;;;7.60;99.90;;;;;;5037059;28;92454;-76
2022/10/20 05:29:12;;;;;;;18.48;15.13;;;7.60;99.90;;;;;;5037137;27;93273;-77
2022/10/20 05:31:41;;;;;;;17.92;13.18;;;7.70;99.90;;;;;;5035479;28;94210;-76
2022/10/20 05:34:09;;;;;;;24.35;13.35;;;7.70;99.90;;;;;;5037094;27;92994;-76
2022/10/20 05:36:37;;;;;;;17.35;13.32;;;7.70;99.90;;;;;;5036922;28;92359;-77
2022/10/20 05:39:04;;;;;;;14.82;12.32;;;7.70;99.90;;;;;;5036522;27;92398;-76
2022/10/20 05:41:32;;;;;;;17.88;13.20;;;7.70;99.90;;;;;;5034756;27;95720;-76
2022/10/20 05:44:04;;;;;;;18.08;13.73;;;7.70;99.90;;;;;;5018958;28;98191;-76
2022/10/20 05:46:33;;;;;;;19.17;13.13;;;7.70;99.90;;;;;;5036816;27;92337;-77
2022/10/20 05:49:02;;;;;;;16.80;14.00;;;7.70;99.90;;;;;;5035324;28;92519;-76
2022/10/20 05:51:33;;;;;;;19.80;13.88;;;7.60;99.90;;;;;;5035132;28;96000;-76
2022/10/20 05:54:00;;;;;;;19.20;14.02;;;7.60;99.90;;;;;;5035306;28;93098;-76
2022/10/20 05:56:29;;;;;;;18.15;13.45;;;7.60;99.90;;;;;;5036717;27;92888;-77
2022/10/20 05:58:57;;;;;;;19.42;13.85;;;7.60;99.90;;;;;;5037013;28;92667;-76
2022/10/20 06:01:27;;;;;;;19.55;14.32;;;7.60;99.90;;;;;;5036537;28;93281;-76
2022/10/20 06:03:58;;;;;;;17.77;14.15;;;7.60;99.90;;;;;;5036130;27;94030;-77
2022/10/20 06:06:28;;;;;;;21.00;13.98;;;7.60;99.90;;;;;;5035149;27;94843;-76
2022/10/20 06:08:56;;;;;;;18.77;14.38;;;7.50;99.90;;;;;;5035029;28;92375;-76
2022/10/20 06:11:24;;;;;;;20.45;13.73;;;7.50;99.90;;;;;;5036254;28;93218;-76
2022/10/20 06:13:52;;;;;;;20.95;15.13;;;7.50;99.90;;;;;;5035039;28;92422;-76
2022/10/20 06:16:21;;;;;;;20.60;13.55;;;7.50;99.90;;;;;;5035013;28;92371;-77
2022/10/20 06:18:48;;;;;;;19.67;13.98;;;7.50;99.90;;;;;;5052047;27;93110;-76
2022/10/20 06:21:17;;;;;;;22.30;14.82;;;7.50;99.90;;;;;;5035674;27;92984;-76
2022/10/20 06:23:44;;;;;;;21.48;15.43;;;7.50;99.90;;;;;;5036182;27;92005;-76
2022/10/20 06:26:16;;;;;;;18.38;14.00;;;7.50;99.90;;;;;;5036389;27;92450;-76
2022/10/20 06:28:44;;;;;;;19.27;12.95;;;7.50;99.90;;;;;;5017920;28;92448;-76
2022/10/20 06:31:14;;;;;;;19.08;14.02;;;7.50;99.90;;;;;;5034932;27;95672;-76
2022/10/20 06:33:42;;;;;;;19.77;14.82;;;7.50;99.90;;;;;;5034263;28;98176;-76
2022/10/20 06:36:09;;;;;;;17.27;13.82;;;7.60;99.90;;;;;;5034901;28;92987;-76
2022/10/20 06:38:37;;;;;;;17.13;13.23;;;7.60;99.90;;;;;;5034757;28;92567;-76
2022/10/20 06:41:08;;;;;;;16.45;11.98;;;7.60;99.90;;;;;;5034062;28;95684;-76
2022/10/20 06:43:35;;;;;;;15.95;12.90;;;7.70;99.90;;;;;;5034878;28;93120;-76
2022/10/20 06:46:05;;;;;;;20.58;13.95;;;7.70;99.90;;;;;;5034897;28;93041;-77
2022/10/20 06:48:33;;;;;;;18.25;13.95;;;7.70;99.90;;;;;;5036412;28;91683;-76
2022/10/20 06:51:07;;;;;;;16.05;13.18;;;7.80;99.90;;;;;;5033968;28;93250;-76
2022/10/20 06:53:35;;;;;;;17.55;12.38;;;7.80;99.90;;;;;;5035808;27;93182;-77
2022/10/20 06:56:10;;;;;;;18.23;12.85;;;7.90;99.90;;;;;;5034401;28;94825;-77
2022/10/20 06:58:38;;;;;;;18.45;16.55;;;8.00;99.90;;;;;;5035909;28;92441;-76
2022/10/20 07:01:16;;;;;;;19.40;13.07;;;8.00;99.90;;;;;;5035283;28;93296;-76
2022/10/20 07:03:45;;;;;;;16.08;12.30;;;8.10;99.90;;;;;;5034371;28;93073;-76
2022/10/20 07:06:19;;;;;;;16.70;12.43;;;8.20;99.90;;;;;;5034109;28;92585;-76
2022/10/20 07:08:46;;;;;;;20.80;13.45;;;8.30;99.90;;;;;;5034203;28;92506;-76
2022/10/20 07:11:19;;;;;;;18.60;12.82;;;8.40;99.90;;;;;;5033223;28;105943;-76
2022/10/20 07:13:48;;;;;;;14.43;12.10;;;8.40;99.90;;;;;;5035895;28;93131;-76
2022/10/20 07:16:18;;;;;;;14.70;11.95;;;8.50;99.90;;;;;;5050486;27;92493;-76
2022/10/20 07:18:46;;;;;;;15.52;11.40;;;8.50;99.90;;;;;;5017359;28;92478;-76
2022/10/20 07:21:15;;;;;;;14.48;11.82;;;8.70;99.90;;;;;;5031919;28;95685;-77
2022/10/20 07:23:43;;;;;;;14.02;10.52;;;8.80;99.90;;;;;;5033991;28;97755;-76
2022/10/20 07:26:15;;;;;;;13.60;11.93;;;8.90;99.90;;;;;;5033792;28;92432;-77
2022/10/20 07:28:44;;;;;;;15.57;10.77;;;9.00;99.90;;;;;;5034330;28;92467;-77
2022/10/20 07:31:14;;;;;;;11.55;10.32;;;9.10;99.90;;;;;;5034956;27;92368;-77
2022/10/20 07:33:41;;;;;;;13.63;10.48;;;9.20;99.90;;;;;;5033594;28;97676;-77
2022/10/20 07:36:16;;;;;;;13.52;9.95;;;9.30;99.90;;;;;;5033583;28;92486;-77
2022/10/20 07:38:44;;;;;;;12.65;11.35;;;9.50;99.90;;;;;;5035028;28;91969;-77
2022/10/20 07:41:12;;;;;;;12.10;10.73;;;9.50;99.90;;;;;;5032875;28;108676;-77
2022/10/20 07:43:39;;;;;;;12.73;9.98;;;9.50;99.90;;;;;;5033749;28;93099;-77
2022/10/20 07:46:07;;;;;;;11.32;10.15;;;9.50;99.90;;;;;;5049421;27;94793;-77
2022/10/20 07:48:34;;;;;;;12.75;9.35;;;9.60;99.90;;;;;;5033636;28;92518;-77
2022/10/20 07:51:20;;;;;;;13.02;10.60;;;9.60;99.90;;;;;;5035059;28;93357;-77
2022/10/20 07:53:48;;;;;;;10.70;9.48;;;9.70;99.90;;;;;;5033356;28;95597;-77
2022/10/20 07:56:15;;;;;;;12.90;10.80;;;9.70;99.90;;;;;;5034263;28;92436;-77
2022/10/20 07:58:42;;;;;;;12.00;9.65;;;9.70;99.90;;;;;;5033298;28;93524;-77
2022/10/20 08:01:09;;;;;;;13.88;10.82;;;9.70;99.90;;;;;;5033305;28;94576;-77
2022/10/20 08:03:36;;;;;;;12.88;9.77;;;9.80;99.90;;;;;;5033555;27;98504;-77
2022/10/20 08:06:04;;;;;;;14.93;10.73;;;9.90;99.90;;;;;;5054293;27;92391;-77
2022/10/20 08:08:32;;;;;;;11.48;8.80;;;9.90;99.90;;;;;;5020338;28;92566;-77
2022/10/20 08:10:59;;;;;;;11.00;9.77;;;9.90;99.90;;;;;;5018602;28;114096;-77
2022/10/20 08:13:27;;;;;;;11.55;9.77;;;10.00;99.90;;;;;;5038649;27;95330;-77
2022/10/20 08:15:54;;;;;;;11.73;10.25;;;10.10;99.90;;;;;;5037308;27;93078;-77
2022/10/20 08:18:28;;;;;;;11.82;9.30;;;10.20;99.90;;;;;;5020961;28;92577;-77
2022/10/20 08:21:06;;;;;;;11.88;10.55;;;10.20;99.90;;;;;;5036480;28;94389;-77
2022/10/20 08:23:36;;;;;;;12.43;9.73;;;10.40;99.90;;;;;;5036561;28;95670;-77
2022/10/20 08:26:03;;;;;;;14.52;13.20;;;10.40;99.90;;;;;;5037231;28;93037;-77
2022/10/20 08:28:35;;;;;;;10.65;9.13;;;10.50;99.90;;;;;;5038205;27;91664;-77
2022/10/20 08:31:06;;;;;;;10.93;8.98;;;10.60;99.90;;;;;;5036861;28;96355;-77
2022/10/20 08:33:34;;;;;;;14.32;8.82;;;10.70;99.90;;;;;;5038486;28;93903;-77
2022/10/20 08:36:07;;;;;;;12.15;9.70;;;10.90;99.90;;;;;;5052930;27;95427;-77
2022/10/20 08:38:35;;;;;;;10.53;9.27;;;11.00;99.90;;;;;;5020406;28;92549;-77
2022/10/20 08:41:05;;;;;;;9.85;8.70;;;11.00;99.90;;;;;;5036393;28;96091;-77
2022/10/20 08:43:36;;;;;;;11.20;9.02;;;11.20;99.90;;;;;;5036959;28;95506;-77
2022/10/20 08:46:03;;;;;;;10.95;8.80;;;11.30;99.90;;;;;;5038387;28;92423;-77
2022/10/20 08:48:32;;;;;;;10.50;8.88;;;11.40;99.90;;;;;;5053646;27;95859;-77
2022/10/20 08:50:59;;;;;;;10.20;8.63;;;11.40;99.90;;;;;;5036540;28;96051;-77
2022/10/20 08:53:28;;;;;;;8.68;7.85;;;11.50;99.90;;;;;;5020384;28;95632;-77
2022/10/20 08:55:55;;;;;;;11.68;8.43;;;11.60;99.90;;;;;;5038255;27;92410;-77
2022/10/20 08:58:24;;;;;;;10.10;8.40;;;11.60;99.90;;;;;;5038139;28;92453;-77
2022/10/20 09:00:56;;;;;;;9.25;8.32;;;11.70;99.90;;;;;;5035453;28;97213;-77
2022/10/20 09:03:27;;;;;;;10.15;8.55;;;11.70;99.90;;;;;;5036495;28;95488;-77
2022/10/20 09:05:59;;;;;;;9.13;7.93;;;11.70;99.90;;;;;;5038342;27;93362;-77
2022/10/20 09:08:29;;;;;;;11.05;9.98;;;11.80;99.90;;;;;;5036842;28;92431;-77
2022/10/20 09:10:56;;;;;;;14.02;12.55;;;11.80;99.90;;;;;;5036496;28;93319;-77
2022/10/20 09:13:29;;;;;;;10.00;8.50;;;11.90;99.90;;;;;;5052632;27;93122;-77
2022/10/20 09:16:27;;;;;;;10.00;7.95;;;12.00;99.90;;;;;;5018704;28;93019;-77
2022/10/20 09:19:00;;;;;;;13.45;8.20;;;12.10;99.90;;;;;;5036832;28;91719;-77
2022/10/20 09:21:30;;;;;;;12.35;7.97;;;12.10;99.90;;;;;;5037363;27;93500;-77
2022/10/20 09:24:03;;;;;;;8.32;7.20;;;12.20;99.90;;;;;;5036410;28;95542;-77
2022/10/20 09:26:30;;;;;;;8.68;7.78;;;12.30;99.90;;;;;;5036321;27;94733;-77
2022/10/20 09:29:19;;;;;;;9.23;7.32;;;12.30;99.90;;;;;;5037766;27;92417;-77
2022/10/20 09:31:50;;;;;;;6.57;5.97;;;12.30;99.90;;;;;;5037410;27;93077;-77
2022/10/20 09:34:22;;;;;;;8.57;7.72;;;12.20;99.90;;;;;;5037489;28;93019;-77
2022/10/20 09:36:52;;;;;;;7.88;6.80;;;12.30;99.90;;;;;;5036849;27;92368;-77
2022/10/20 09:39:21;;;;;;;8.82;7.10;;;12.30;99.90;;;;;;5037429;28;92879;-77
2022/10/20 09:41:49;;;;;;;7.93;7.13;;;12.40;99.90;;;;;;5035969;28;95657;-77
2022/10/20 09:44:24;;;;;;;8.57;7.43;;;12.40;99.90;;;;;;5036240;28;92812;-77
2022/10/20 09:46:53;;;;;;;9.63;6.95;;;12.50;99.90;;;;;;5036494;28;92420;-77
2022/10/20 09:49:38;;;;;;;8.95;7.25;;;12.50;99.90;;;;;;5052667;27;92550;-77
2022/10/20 09:52:16;;;;;;;11.82;10.38;;;12.70;99.90;;;;;;5036006;27;95535;-77
2022/10/20 09:54:48;;;;;;;9.93;9.02;;;12.70;99.90;;;;;;5018608;28;98176;-77
2022/10/20 09:57:17;;;;;;;8.23;7.15;;;12.80;99.90;;;;;;5036964;27;92357;-77
2022/10/20 09:59:46;;;;;;;7.82;6.28;;;12.90;99.90;;;;;;5037284;27;92420;-77
2022/10/20 10:02:19;;;;;;;7.70;6.90;;;13.00;99.90;;;;;;5035239;28;93245;-77
2022/10/20 10:04:51;;;;;;;7.70;6.88;;;13.20;99.90;;;;;;5035674;28;95443;-77
2022/10/20 10:07:21;;;;;;;8.02;6.97;;;13.40;99.90;;;;;;5035688;28;92578;-77
2022/10/20 10:09:56;;;;;;;9.65;6.75;;;13.50;99.90;;;;;;5036094;28;91657;-77
2022/10/20 10:12:26;;;;;;;8.25;6.57;;;13.50;99.90;;;;;;5036897;27;93267;-77
2022/10/20 10:15:00;;;;;;;11.20;7.30;;;13.60;99.90;;;;;;5036805;27;92979;-77
2022/10/20 10:17:35;;;;;;;8.00;7.22;;;13.60;99.90;;;;;;5035925;27;95166;-77
2022/10/20 10:20:23;;;;;;;8.43;7.60;;;13.70;99.90;;;;;;5035359;28;92426;-77
2022/10/20 10:22:50;;;;;;;7.43;6.40;;;13.70;99.90;;;;;;5035589;28;93303;-77
2022/10/20 10:25:26;;;;;;;7.53;6.88;;;13.60;99.90;;;;;;5034882;28;95655;-78
2022/10/20 10:28:18;;;;;;;7.07;6.20;;;13.70;99.90;;;;;;5036635;27;92398;-77
2022/10/20 10:30:45;;;;;;;7.85;7.10;;;13.60;99.90;;;;;;5035569;28;92548;-77
2022/10/20 10:33:28;;;;;;;9.50;6.80;;;13.70;99.90;;;;;;5035123;28;95721;-77
2022/10/20 10:35:55;;;;;;;8.32;6.80;;;13.80;99.90;;;;;;5037187;27;92956;-77
2022/10/20 10:38:22;;;;;;;7.47;6.68;;;13.90;99.90;;;;;;5035420;28;92443;-77
2022/10/20 10:41:07;;;;;;;8.13;7.32;;;14.00;99.90;;;;;;5036822;28;93079;-77
2022/10/20 10:43:59;;;;;;;9.18;7.30;;;14.10;99.90;;;;;;5035078;27;94817;-77
2022/10/20 10:46:35;;;;;;;6.68;6.13;;;14.30;99.90;;;;;;5035140;28;95596;-77
2022/10/20 10:49:39;;;;;;;7.30;6.40;;;14.30;99.90;;;;;;5035158;28;92810;-77
2022/10/20 10:52:56;;;;;;;7.45;5.60;;;14.50;99.90;;;;;;5036560;28;92409;-77
2022/10/20 10:55:34;;;;;;;8.93;7.78;;;14.40;99.90;;;;;;5026280;28;93196;-77
2022/10/20 10:58:33;;;;;;;8.68;7.55;;;14.50;99.90;;;;;;5034994;28;93024;-77
2022/10/20 11:01:11;;;;;;;9.77;8.02;;;14.50;99.90;;;;;;5034788;28;92472;-77
2022/10/20 11:04:00;;;;;;;7.07;6.43;;;14.60;99.90;;;;;;5036607;27;91706;-77
2022/10/20 11:06:27;;;;;;;7.03;6.32;;;14.70;99.90;;;;;;5036046;27;92997;-77
2022/10/20 11:09:05;;;;;;;6.88;6.18;;;14.60;99.90;;;;;;5034550;28;95512;-77
2022/10/20 11:12:09;;;;;;;9.40;7.32;;;14.60;99.90;;;;;;5035090;27;94756;-77
2022/10/20 11:15:07;;;;;;;7.80;7.13;;;14.60;99.90;;;;;;5034462;28;92582;-77
2022/10/20 11:17:37;;;;;;;10.27;7.28;;;14.70;99.90;;;;;;5035698;27;93042;-77
2022/10/20 11:20:25;;;;;;;8.77;7.47;;;14.80;99.90;;;;;;5035587;27;93058;-78
2022/10/20 11:23:10;;;;;;;8.60;7.78;;;14.90;99.90;;;;;;5035737;28;92851;-77
2022/10/20 11:25:47;;;;;;;9.98;7.05;;;15.10;99.90;;;;;;5034540;28;92463;-77
2022/10/20 11:28:45;;;;;;;8.32;7.20;;;15.00;99.90;;;;;;5035842;28;93204;-77
2022/10/20 11:31:24;;;;;;;8.48;7.78;;;15.10;99.90;;;;;;5034204;28;95814;-77
2022/10/20 11:33:59;;;;;;;11.13;8.73;;;15.20;99.90;;;;;;5034633;28;92513;-77
2022/10/20 11:36:48;;;;;;;11.27;7.35;;;15.40;99.90;;;;;;5034215;28;92662;-78
2022/10/20 11:39:29;;;;;;;25.17;9.90;;;15.40;99.90;;;;;;5031676;28;97329;-77
2022/10/20 11:42:11;;;;;;;8.60;7.43;;;15.70;99.90;;;;;;5035487;28;95246;-77
2022/10/20 11:44:43;;;;;;;9.32;8.32;;;15.80;99.90;;;;;;5034079;28;92495;-77
2022/10/20 11:47:15;;;;;;;8.65;7.82;;;15.90;99.90;;;;;;5034171;28;92472;-77
2022/10/20 11:49:43;;;;;;;8.75;7.70;;;16.00;99.90;;;;;;5034193;28;93126;-77
2022/10/20 11:52:27;;;;;;;8.80;8.00;;;15.90;99.90;;;;;;5034353;28;93088;-77
2022/10/20 11:55:06;;;;;;;;;;;15.90;99.90;;;;;;5034602;28;92573;-77
2022/10/20 11:57:49;;;;;;;10.30;8.35;;;15.70;99.90;;;;;;5018873;28;92192;-78
2022/10/20 12:00:22;;;;;;;10.13;7.95;;;15.70;99.90;;;;;;5035689;28;93351;-77
2022/10/20 12:02:49;;;;;;;8.02;7.32;;;15.70;99.90;;;;;;5017308;28;94359;-77
2022/10/20 12:05:41;;;;;;;10.15;8.55;;;15.70;99.90;;;;;;5033593;27;105566;-77
2022/10/20 12:08:42;;;;;;;11.13;10.02;;;15.80;99.90;;;;;;5034506;28;92505;-77
2022/10/20 12:11:47;;;;;;;10.57;8.73;;;15.80;99.90;;;;;;5033616;28;93374;-77
2022/10/20 12:14:18;;;;;;;10.05;9.05;;;15.80;99.90;;;;;;5033992;28;93187;-77
2022/10/20 12:16:51;;;;;;;9.10;7.97;;;15.80;99.90;;;;;;5035235;27;92509;-77
2022/10/20 12:19:19;;;;;;;7.93;7.13;;;16.00;99.90;;;;;;5035465;27;92305;-78
2022/10/20 12:22:04;;;;;;;9.13;8.23;;;16.00;99.90;;;;;;5016447;28;95698;-77
2022/10/20 12:24:38;;;;;;;11.68;9.57;;;16.20;99.90;;;;;;5033810;28;96194;-77
2022/10/20 12:27:07;;;;;;;11.32;9.73;;;16.10;99.90;;;;;;5033793;28;92639;-77
2022/10/20 12:29:34;;;;;;;10.88;9.70;;;16.00;99.90;;;;;;5034861;28;92454;-77
2022/10/20 12:32:39;;;;;;;10.55;8.68;;;15.90;99.90;;;;;;5033512;28;102884;-77
2022/10/20 12:35:09;;;;;;;;;;;16.00;99.90;;;;;;5017420;28;98295;-78
2022/10/20 12:37:37;;;;;;;11.35;10.15;;;15.80;99.90;;;;;;5036302;28;92415;-78
2022/10/20 12:40:06;;;;;;;11.70;8.60;;;15.60;99.90;;;;;;5034821;27;93370;-77
2022/10/20 12:42:44;;;;;;;11.20;8.75;;;15.70;99.90;;;;;;5034669;27;93004;-77
2022/10/20 12:45:17;;;;;;;10.02;9.07;;;15.70;99.90;;;;;;5034642;27;93068;-78
2022/10/20 12:48:19;;;;;;;11.35;9.90;;;15.60;99.90;;;;;;5034874;28;92536;-78
2022/10/20 12:50:49;;;;;;;11.40;9.82;;;15.60;99.90;;;;;;5035323;27;91750;-77
2022/10/20 12:53:15;;;;;;;12.65;11.00;;;15.50;99.90;;;;;;5036218;28;107317;-78
2022/10/20 12:55:47;;;;;;;10.45;9.10;;;15.50;99.90;;;;;;5026179;27;93223;-84
2022/10/20 12:58:17;;;;;;;11.98;9.75;;;15.50;99.90;;;;;;4990465;28;94883;-81
2022/10/20 13:00:50;;;;;;;13.63;10.38;;;15.50;99.90;;;;;;5009737;28;92936;-81
2022/10/20 13:03:48;;;;;;;13.30;10.57;;;15.40;99.90;;;;;;5015955;28;95562;-81
2022/10/20 13:06:21;;;;;;;14.23;11.70;;;15.40;99.90;;;;;;5034875;28;94568;-78
2022/10/20 13:09:03;;;;;;;13.25;10.88;;;15.20;99.90;;;;;;5038060;28;92477;-78